Les Masies de Roda





Hora UTC 08:25
Temperatura 1.1 ºC
Suelo 15 cm 1.1 ºC
Subsuelo 10 cm 6.2 ºC
Humedad 99.6 %
Presión 1024.4 hPa
Pluja 0.0 mm
Velocidad viento 0.0 km/h
Dirección viento NNE
Radiación solar 99.8 W/m²

Datos diarios 2020-02-20



Hora UTC (invierno +1h; verano +2h)
Temperatura (ºC) Humedad (%) Presión (hPa) Velocidad viento (km/h) Precipitación (mm) Radiación solar (W/m²)
Hora UTC Aire Suelo 15 cm Subsuelo 10 cm Humedad Presión Vel. Dir. Vel. Max Dir. Intent. máx 5 min. Rad. Sol.
00:05 1.9 -0.5 7.7 95.9 1026.0 0.0 NNE 0.0 ESE 0.0 0.1
00:10 1.8 -0.6 7.7 96.0 1025.9 0.0 NNE 0.0 ESE 0.0 0.1
00:15 2.0 -0.7 7.7 96.4 1025.8 0.0 NNE 0.0 ESE 0.0 0.1
00:20 2.0 -0.6 7.6 96.3 1025.9 0.0 NNE 0.0 ESE 0.0 0.1
00:25 2.0 -0.7 7.6 96.4 1025.8 0.0 ESE 3.4 ESE 0.0 0.1
00:30 1.9 -0.6 7.6 96.1 1025.8 0.0 NNE 0.0 ESE 0.0 0.1
00:35 1.6 -0.7 7.5 96.0 1025.7 0.0 NNE 0.0 ESE 0.0 0.1
00:40 1.5 -0.7 7.4 96.1 1025.8 0.0 NNE 0.0 ESE 0.0 0.1
00:45 1.4 -1.0 7.4 96.1 1025.8 0.0 NNE 0.0 ESE 0.0 0.1
00:50 1.5 -1.1 7.4 96.6 1025.8 0.0 NNE 0.0 ESE 0.0 0.1
00:55 1.6 -1.1 7.4 96.7 1025.8 0.0 NNE 0.0 ESE 0.0 0.1
01:00 1.4 -1.0 7.3 96.5 1025.7 0.0 NNE 0.0 ESE 0.0 0.1
01:05 1.2 -1.1 7.3 96.5 1025.7 0.0 NNE 0.0 ESE 0.0 0.1
01:10 1.5 -1.1 7.3 97.1 1025.6 0.0 NNE 0.0 ESE 0.0 0.1
01:15 1.5 -1.2 7.3 96.9 1025.5 0.0 NNE 0.0 ESE 0.0 0.1
01:20 1.3 -1.0 7.2 96.8 1025.4 0.0 NNE 0.0 ESE 0.0 0.1
01:25 1.3 -1.0 7.2 96.8 1025.4 0.0 NNE 0.0 ESE 0.0 0.1
01:30 1.2 -1.0 7.2 96.7 1025.3 0.0 NNE 0.0 ESE 0.0 0.1
01:35 1.1 -1.2 7.1 96.8 1025.3 0.0 NNE 0.0 ESE 0.0 0.1
01:40 1.0 -1.4 7.0 96.9 1025.3 0.0 NNE 0.0 ESE 0.0 0.1
01:45 1.1 -1.6 7.0 97.1 1025.2 0.0 NNE 0.0 ESE 0.0 0.1
01:50 1.0 -1.6 7.0 97.2 1025.1 0.0 NNE 0.0 ESE 0.0 0.1
01:55 1.1 -1.6 7.0 97.3 1025.1 0.0 NNE 0.0 ESE 0.0 0.1
02:00 0.9 -0.7 7.0 97.2 1025.0 0.0 NNE 0.0 ESE 0.0 0.1
02:05 0.8 -0.6 7.0 97.1 1025.1 0.0 NNE 0.0 ESE 0.0 0.1
02:10 0.8 -0.7 6.9 97.3 1025.1 0.0 NNE 0.0 ESE 0.0 0.1
02:15 0.4 -0.8 6.9 96.8 1025.0 0.0 NNE 0.0 WNW 0.0 0.1
02:20 0.4 -0.9 6.8 97.3 1025.0 0.0 NNE 0.0 W 0.0 0.1
02:25 0.5 -1.0 6.8 97.5 1024.9 0.0 NNE 0.0 W 0.0 0.1
02:30 0.6 -1.0 6.8 97.6 1024.8 0.0 NNE 0.0 W 0.0 0.1
02:35 0.6 -1.0 6.8 97.7 1024.8 0.0 NNE 0.0 W 0.0 0.1
02:40 0.7 -1.0 6.8 97.8 1024.8 0.0 NNE 0.0 W 0.0 0.1
02:45 0.6 -1.1 6.7 97.7 1024.7 0.0 NNE 0.0 W 0.0 0.1
02:50 0.5 -1.1 6.7 97.6 1024.6 0.0 NNE 0.0 W 0.0 0.1
02:55 0.4 -1.1 6.7 97.7 1024.6 0.0 NNE 0.0 W 0.0 0.1
03:00 0.2 -1.2 6.6 97.5 1024.6 0.0 NNE 0.0 W 0.0 0.1
03:05 0.0 -1.3 6.6 97.4 1024.5 0.0 NNE 0.0 W 0.0 0.1
03:10 -0.1 -1.4 6.6 97.4 1024.5 0.0 NNE 0.0 W 0.0 0.1
03:15 -0.1 -1.4 6.6 97.6 1024.5 0.0 NNE 0.0 W 0.0 0.1
03:20 0.1 -1.3 6.5 97.7 1024.4 0.0 NNE 0.0 W 0.0 0.1
03:25 0.0 -1.4 6.5 97.6 1024.4 0.0 NNE 0.0 W 0.0 0.1
03:30 0.1 -1.5 6.5 97.8 1024.3 0.0 NNE 0.0 W 0.0 0.1
03:35 0.1 -1.5 6.4 97.7 1024.3 0.0 NNE 0.0 W 0.0 0.1
03:40 0.1 -1.5 6.5 97.8 1024.3 0.0 NNE 0.0 W 0.0 0.1
03:45 0.0 -1.6 6.4 97.8 1024.3 0.0 NNE 0.0 W 0.0 0.1
03:50 0.1 -1.6 6.4 98.0 1024.3 0.0 NNE 0.0 W 0.0 0.1
03:55 0.1 -1.7 6.4 97.9 1024.2 0.0 NNE 0.0 W 0.0 0.1
04:00 0.0 -1.7 6.3 97.9 1024.2 0.0 NNE 0.0 W 0.0 0.1
04:05 0.0 -1.6 6.3 98.0 1024.2 0.0 NNE 0.0 ENE 0.0 0.1
04:10 0.0 -1.6 6.3 98.1 1024.2 0.0 NNE 0.0 E 0.0 0.1
04:15 0.0 -1.7 6.3 98.1 1024.2 0.0 NNE 0.0 E 0.0 0.1
04:20 -0.1 -1.8 6.3 98.1 1024.2 0.0 NNE 0.0 E 0.0 0.1
04:25 -0.1 -1.8 6.3 98.2 1024.2 0.0 NNE 0.0 E 0.0 0.1
04:30 -0.2 -2.0 6.3 98.2 1024.2 0.0 NNE 0.0 NE 0.0 0.1
04:35 -0.1 -2.1 6.3 98.3 1024.2 0.0 NNE 0.0 NE 0.0 0.1
04:40 0.0 -2.2 6.2 98.5 1024.2 0.0 NNE 0.0 NE 0.0 0.1
04:45 0.1 -2.2 6.2 98.5 1024.2 0.9 E 6.1 E 0.0 0.1
04:50 0.1 -2.1 6.1 98.5 1024.2 4.0 E 8.8 ESE 0.0 0.1
04:55 -0.1 -2.1 6.1 98.3 1024.2 0.3 ESE 3.4 E 0.0 0.1
05:00 -0.1 -2.0 6.1 98.4 1024.2 0.0 NNE 0.0 ESE 0.0 0.1
05:05 -0.1 -1.8 6.1 98.6 1024.2 0.0 NNE 0.0 ESE 0.0 0.1
05:10 0.0 -1.5 6.1 98.7 1024.2 0.0 NNE 0.0 ESE 0.0 0.1
05:15 -0.1 -1.3 6.0 98.7 1024.2 0.0 NNE 0.0 NE 0.0 0.1
05:20 -0.2 -1.3 5.9 98.7 1024.2 0.0 NNE 0.0 NNE 0.0 0.1
05:25 -0.3 -1.4 6.0 98.7 1024.2 0.0 NNE 0.0 NNE 0.0 0.1
05:30 -0.3 -1.4 6.0 98.8 1024.1 0.0 NNE 0.0 E 0.0 0.1
05:35 -0.3 -1.4 6.0 98.9 1024.1 0.0 NNE 0.0 E 0.0 0.1
05:40 -0.3 -1.5 6.0 98.9 1024.1 0.0 NNE 0.0 E 0.0 0.1
05:45 -0.3 -1.6 6.0 98.9 1024.0 0.0 NNE 0.0 E 0.0 0.1
05:50 -0.2 -1.7 6.0 99.1 1024.1 1.8 ESE 6.1 ESE 0.0 0.1
05:55 -0.1 -1.7 5.9 99.1 1024.1 0.0 NNE 0.0 SE 0.0 0.1
06:00 0.0 -1.6 5.9 99.1 1024.2 0.0 NNE 0.0 E 0.0 0.1
06:05 0.0 -1.4 5.9 99.1 1024.1 0.0 NNE 0.0 E 0.0 0.1
06:10 0.1 -1.2 5.9 99.2 1024.1 0.0 NNE 0.0 E 0.0 0.1
06:15 0.1 -1.1 5.9 99.2 1024.1 0.0 NNE 0.0 ESE 0.0 0.1
06:20 0.0 -1.1 5.9 98.9 1024.0 0.0 NNE 0.0 ESE 0.0 0.1
06:25 -0.3 -1.0 5.9 99.0 1024.1 0.0 NNE 0.0 ENE 0.0 0.3
06:30 -0.2 -0.9 5.9 99.2 1024.1 0.0 NNE 0.0 E 0.0 0.8
06:35 -0.2 -0.9 5.9 99.2 1024.1 0.0 NNE 0.0 E 0.0 1.4
06:40 -0.3 -0.9 6.0 99.1 1024.1 0.0 NNE 0.0 NW 0.0 2.4
06:45 -0.3 -0.9 6.0 99.2 1024.1 0.0 NNE 0.0 NW 0.0 3.6
06:50 -0.3 -0.9 6.0 99.2 1024.1 0.0 NNE 0.0 NNE 0.0 5.4
06:55 -0.3 -0.8 6.0 99.3 1024.1 0.0 NNE 0.0 NNE 0.0 7.9
07:00 -0.2 -0.7 6.0 99.3 1024.2 0.0 NNE 0.0 ENE 0.0 9.9
07:05 -0.1 -0.7 6.0 99.3 1024.2 0.0 NNE 0.0 NE 0.0 12.4
07:10 -0.1 -0.6 6.0 99.3 1024.2 0.0 NNE 0.0 NE 0.0 16.0
07:15 -0.1 -0.5 6.0 99.3 1024.3 0.0 NNE 0.0 NE 0.0 18.4
07:20 -0.1 -0.4 6.0 99.4 1024.3 0.0 NNE 0.0 NE 0.0 27.4
07:25 -0.1 -0.4 6.0 99.3 1024.3 0.0 NNE 0.0 NNE 0.0 35.1
07:30 0.0 -0.3 6.0 99.4 1024.3 0.0 NNE 0.0 NE 0.0 38.1
07:35 0.0 -0.2 6.0 99.4 1024.3 0.0 NNE 0.0 NNE 0.0 44.4
07:40 0.1 -0.2 6.0 99.5 1024.3 0.0 NNE 0.0 NNE 0.0 49.2
07:45 0.1 0.0 6.0 99.4 1024.4 0.0 NNE 0.0 NE 0.0 53.1
07:50 0.2 0.2 6.0 99.5 1024.4 1.8 ENE 6.1 ENE 0.0 61.3
07:55 0.3 0.3 6.0 99.5 1024.4 0.0 NE 3.4 NE 0.0 75.7
08:00 0.3 0.4 6.0 99.4 1024.4 0.0 NNE 0.0 NE 0.0 74.1
08:05 0.5 0.6 6.0 99.5 1024.4 0.0 NNE 0.0 E 0.0 81.3
08:10 0.6 0.7 6.1 99.5 1024.4 0.0 NNE 0.0 E 0.0 97.4
08:15 0.8 0.8 6.2 99.6 1024.4 0.0 NNE 0.0 E 0.0 91.9
08:20 0.9 0.9 6.2 99.6 1024.4 0.0 NNE 0.0 NNW 0.0 92.5
08:25 1.1 1.1 6.2 99.6 1024.4 0.0 NNE 0.0 NNW 0.0 99.8
Máxima 2.0 1.1 7.7 99.6 1026.0 4.0 E 8.8 ESE 0.0 99.8
Mínima -0.4 -2.2 5.9 95.9 1024.0
Total 0.0